Time;durP1;ratioP1;P1;durP2;ratioP2;P2;SDS_P1;SDS_P2;PMS_P1;PMS_P2;Temp;Humidity;BMP_temperature;BMP_pressure;BME280_temperature;BME280_humidity;BME280_pressure;Samples;Min_cycle;Max_cycle;Signal;HPM_P1;HPM_P2
2022/03/28 00:01:14;;;;;;;43.47;22.73;;;;;;;;;;5014545;28;20038;-74
2022/03/28 00:03:40;;;;;;;44.92;23.05;;;;;;;;;;5015337;28;20171;-74
2022/03/28 00:06:09;;;;;;;44.53;22.90;;;;;;;;;;4998633;28;20457;-74
2022/03/28 00:08:35;;;;;;;43.63;21.73;;;;;;;;;;4999055;28;20042;-74
2022/03/28 00:11:01;;;;;;;45.92;21.98;;;;;;;;;;4999054;28;20045;-73
2022/03/28 00:13:27;;;;;;;38.67;21.50;;;;;;;;;;5016070;28;20131;-75
2022/03/28 00:15:53;;;;;;;39.13;21.48;;;;;;;;;;5026248;28;20097;-74
2022/03/28 00:18:20;;;;;;;36.47;19.77;;;;;;;;;;5013580;28;20048;-73
2022/03/28 00:20:47;;;;;;;40.65;21.60;;;;;;;;;;5029121;28;20044;-74
2022/03/28 00:23:13;;;;;;;41.00;20.90;;;;;;;;;;5027458;28;20041;-73
2022/03/28 00:25:40;;;;;;;41.47;21.23;;;;;;;;;;4999381;28;20149;-75
2022/03/28 00:28:07;;;;;;;39.35;20.83;;;;;;;;;;5015418;28;20128;-74
2022/03/28 00:30:33;;;;;;;39.92;20.65;;;;;;;;;;5016458;28;20137;-75
2022/03/28 00:32:59;;;;;;;41.28;22.10;;;;;;;;;;5015727;28;20037;-74
2022/03/28 00:35:25;;;;;;;43.13;22.33;;;;;;;;;;5016785;28;20125;-75
2022/03/28 00:37:52;;;;;;;38.80;20.65;;;;;;;;;;5017028;28;20042;-76
2022/03/28 00:40:19;;;;;;;43.97;21.65;;;;;;;;;;5015261;28;20041;-74
2022/03/28 00:42:45;;;;;;;43.83;22.67;;;;;;;;;;5032803;28;20116;-74
2022/03/28 00:45:12;;;;;;;44.15;22.33;;;;;;;;;;5005447;28;20040;-75
2022/03/28 00:47:38;;;;;;;49.67;22.42;;;;;;;;;;5032882;28;20042;-75
2022/03/28 00:50:04;;;;;;;46.97;21.95;;;;;;;;;;5013975;28;20415;-74
2022/03/28 00:52:30;;;;;;;44.30;22.42;;;;;;;;;;5020868;28;20053;-75
2022/03/28 00:54:56;;;;;;;49.15;23.67;;;;;;;;;;5023586;28;20037;-74
2022/03/28 00:57:22;;;;;;;64.25;31.35;;;;;;;;;;5012293;28;20045;-75
2022/03/28 00:59:48;;;;;;;52.88;26.95;;;;;;;;;;5016083;28;20065;-75
2022/03/28 01:02:14;;;;;;;45.20;23.75;;;;;;;;;;5015656;28;20064;-74
2022/03/28 01:04:40;;;;;;;49.00;25.45;;;;;;;;;;5030729;28;20049;-74
2022/03/28 01:07:06;;;;;;;52.03;27.52;;;;;;;;;;5014590;28;20108;-76
2022/03/28 01:09:32;;;;;;;51.45;26.05;;;;;;;;;;4997885;28;20038;-74
2022/03/28 01:11:58;;;;;;;48.45;24.40;;;;;;;;;;5016258;28;20438;-75
2022/03/28 01:14:25;;;;;;;44.85;22.00;;;;;;;;;;5002056;28;20049;-75
2022/03/28 01:19:36;;;;;;;40.22;21.35;;;;;;;;;;5019574;28;20038;-75
2022/03/28 01:22:01;;;;;;;39.55;21.20;;;;;;;;;;5018525;28;20042;-74
2022/03/28 01:24:28;;;;;;;40.70;20.85;;;;;;;;;;5018327;28;20331;-75
2022/03/28 01:26:54;;;;;;;42.13;21.95;;;;;;;;;;5018354;28;20133;-74
2022/03/28 01:29:20;;;;;;;48.28;23.60;;;;;;;;;;5001401;28;20053;-74
2022/03/28 01:31:46;;;;;;;42.70;21.02;;;;;;;;;;5001541;28;20096;-75
2022/03/28 01:34:18;;;;;;;44.10;23.15;;;;;;;;;;5001511;28;20045;-75
2022/03/28 01:36:47;;;;;;;46.10;22.10;;;;;;;;;;5001431;28;20038;-75
2022/03/28 01:39:13;;;;;;;40.83;21.98;;;;;;;;;;5017766;28;20269;-75
2022/03/28 01:41:40;;;;;;;40.80;21.83;;;;;;;;;;5017760;28;20045;-76
2022/03/28 01:44:05;;;;;;;44.53;22.35;;;;;;;;;;5018369;28;20057;-77
2022/03/28 01:46:31;;;;;;;42.88;22.58;;;;;;;;;;5018898;28;20041;-76
2022/03/28 01:48:57;;;;;;;45.33;23.35;;;;;;;;;;5017718;28;20038;-74
2022/03/28 01:51:23;;;;;;;41.75;22.23;;;;;;;;;;5001496;28;20046;-74
2022/03/28 01:53:49;;;;;;;47.78;22.88;;;;;;;;;;5033810;28;20042;-75
2022/03/28 01:56:15;;;;;;;45.35;22.10;;;;;;;;;;5017555;28;20041;-75
2022/03/28 01:58:41;;;;;;;45.80;23.65;;;;;;;;;;5017646;28;20048;-76
2022/03/28 02:01:07;;;;;;;45.03;23.92;;;;;;;;;;5033726;28;20100;-75
2022/03/28 02:03:33;;;;;;;46.05;23.52;;;;;;;;;;5017503;28;20144;-74
2022/03/28 02:05:59;;;;;;;48.13;24.23;;;;;;;;;;5033391;28;20038;-74
2022/03/28 02:08:25;;;;;;;46.72;24.25;;;;;;;;;;5017513;28;20045;-74
2022/03/28 02:10:51;;;;;;;47.00;24.60;;;;;;;;;;5000519;28;20453;-75
2022/03/28 02:13:17;;;;;;;45.42;23.98;;;;;;;;;;5000751;28;20038;-75
2022/03/28 02:15:43;;;;;;;48.67;24.98;;;;;;;;;;5000603;28;20064;-76
2022/03/28 02:18:10;;;;;;;44.70;24.30;;;;;;;;;;5017167;28;20029;-74
2022/03/28 02:20:36;;;;;;;47.28;24.58;;;;;;;;;;5017050;28;20453;-74
2022/03/28 02:23:02;;;;;;;52.25;26.38;;;;;;;;;;5000119;28;20037;-74
2022/03/28 02:25:28;;;;;;;47.45;25.23;;;;;;;;;;4999574;28;20037;-75
2022/03/28 02:27:54;;;;;;;49.67;25.67;;;;;;;;;;5000388;28;20449;-75
2022/03/28 02:30:20;;;;;;;49.42;24.52;;;;;;;;;;5000424;28;20069;-75
2022/03/28 02:32:46;;;;;;;51.25;25.30;;;;;;;;;;5033126;28;20441;-75
2022/03/28 02:35:12;;;;;;;50.50;25.25;;;;;;;;;;5016810;28;20038;-74
2022/03/28 02:37:38;;;;;;;48.88;25.15;;;;;;;;;;5000211;28;20041;-76
2022/03/28 02:40:05;;;;;;;51.97;25.15;;;;;;;;;;5016671;28;20414;-76
2022/03/28 02:42:31;;;;;;;50.00;24.65;;;;;;;;;;5000317;28;20034;-75
2022/03/28 02:44:57;;;;;;;50.85;24.75;;;;;;;;;;5016631;28;20065;-74
2022/03/28 02:47:23;;;;;;;50.42;25.15;;;;;;;;;;5000104;28;20107;-74
2022/03/28 02:49:50;;;;;;;49.00;25.38;;;;;;;;;;5000174;28;20346;-74
2022/03/28 02:52:16;;;;;;;47.30;25.23;;;;;;;;;;5016822;28;20046;-76
2022/03/28 02:54:42;;;;;;;48.92;25.65;;;;;;;;;;5032522;28;20041;-75
2022/03/28 02:57:08;;;;;;;49.13;24.75;;;;;;;;;;5032620;28;20060;-74
2022/03/28 02:59:34;;;;;;;50.00;25.42;;;;;;;;;;5016482;28;20072;-75
2022/03/28 03:02:02;;;;;;;50.53;25.13;;;;;;;;;;4999852;28;20113;-74
2022/03/28 03:04:28;;;;;;;44.35;23.92;;;;;;;;;;5016430;28;20350;-75
2022/03/28 03:06:54;;;;;;;49.15;25.35;;;;;;;;;;5016996;28;20580;-74
2022/03/28 03:09:20;;;;;;;48.08;24.92;;;;;;;;;;5017092;28;20050;-74
2022/03/28 03:11:46;;;;;;;51.05;25.75;;;;;;;;;;4999606;28;20048;-74
2022/03/28 03:14:12;;;;;;;53.15;26.98;;;;;;;;;;4999721;28;20038;-74
2022/03/28 03:16:40;;;;;;;53.13;25.20;;;;;;;;;;5015947;28;20128;-75
2022/03/28 03:19:06;;;;;;;55.55;26.20;;;;;;;;;;4999872;28;20089;-74
2022/03/28 03:21:32;;;;;;;54.25;26.73;;;;;;;;;;4999581;28;20045;-74
2022/03/28 03:23:58;;;;;;;52.90;25.23;;;;;;;;;;4999298;28;20100;-75
2022/03/28 03:26:24;;;;;;;51.40;25.52;;;;;;;;;;5015829;28;20042;-74
2022/03/28 03:28:50;;;;;;;56.50;26.02;;;;;;;;;;5031898;28;20038;-75
2022/03/28 03:31:16;;;;;;;50.53;24.98;;;;;;;;;;5016992;28;20057;-74
2022/03/28 03:33:42;;;;;;;54.45;26.52;;;;;;;;;;5015837;28;20414;-75
2022/03/28 03:36:08;;;;;;;54.50;28.02;;;;;;;;;;5016645;28;20120;-74
2022/03/28 03:38:34;;;;;;;56.58;27.92;;;;;;;;;;5016838;28;20404;-75
2022/03/28 03:41:00;;;;;;;57.38;26.65;;;;;;;;;;5016636;28;20045;-75
2022/03/28 03:43:26;;;;;;;53.53;26.60;;;;;;;;;;5015654;28;20045;-75
2022/03/28 03:45:52;;;;;;;52.70;26.75;;;;;;;;;;5031611;28;20107;-74
2022/03/28 03:48:19;;;;;;;55.00;26.88;;;;;;;;;;5018633;28;20049;-73
2022/03/28 03:50:45;;;;;;;49.65;24.98;;;;;;;;;;5021778;28;20041;-75
2022/03/28 03:53:11;;;;;;;53.50;26.25;;;;;;;;;;5021288;28;20046;-75
2022/03/28 03:55:37;;;;;;;51.95;24.80;;;;;;;;;;5020399;28;20070;-74
2022/03/28 03:58:03;;;;;;;52.25;26.27;;;;;;;;;;5019973;28;20041;-74
2022/03/28 04:00:29;;;;;;;53.65;26.00;;;;;;;;;;5006031;28;20041;-74
2022/03/28 04:02:55;;;;;;;48.90;26.52;;;;;;;;;;5017565;28;20124;-75
2022/03/28 04:05:21;;;;;;;50.90;26.17;;;;;;;;;;5017711;28;20428;-75
2022/03/28 04:07:47;;;;;;;56.33;27.02;;;;;;;;;;4999457;28;20160;-75
2022/03/28 04:10:13;;;;;;;48.65;26.02;;;;;;;;;;5016958;28;20473;-74
2022/03/28 04:12:39;;;;;;;51.45;26.45;;;;;;;;;;5032214;28;20037;-74
2022/03/28 04:15:06;;;;;;;54.42;27.13;;;;;;;;;;5032681;28;20137;-75
2022/03/28 04:17:42;;;;;;;51.50;26.23;;;;;;;;;;5015109;28;20050;-75
2022/03/28 04:20:09;;;;;;;57.22;28.58;;;;;;;;;;5015355;28;20445;-73
2022/03/28 04:22:35;;;;;;;57.33;27.60;;;;;;;;;;5015289;28;20041;-74
2022/03/28 04:25:01;;;;;;;53.67;26.27;;;;;;;;;;4999995;28;20038;-79
2022/03/28 04:27:27;;;;;;;60.60;31.42;;;;;;;;;;5016749;28;20045;-79
2022/03/28 04:29:53;;;;;;;70.95;32.97;;;;;;;;;;5000331;28;20133;-79
2022/03/28 04:32:19;;;;;;;65.00;30.38;;;;;;;;;;5016880;28;20449;-79
2022/03/28 04:34:45;;;;;;;64.82;32.33;;;;;;;;;;5017986;28;20049;-79
2022/03/28 04:37:11;;;;;;;64.95;31.27;;;;;;;;;;5017672;28;20042;-78
2022/03/28 04:39:37;;;;;;;68.30;31.10;;;;;;;;;;5016956;28;20034;-79
2022/03/28 04:42:03;;;;;;;67.68;31.13;;;;;;;;;;5017445;28;20049;-79
2022/03/28 04:44:29;;;;;;;69.22;32.55;;;;;;;;;;5000154;28;20394;-79
2022/03/28 04:46:55;;;;;;;96.63;43.33;;;;;;;;;;5016079;28;20346;-79
2022/03/28 04:49:21;;;;;;;96.55;44.03;;;;;;;;;;5017863;28;20048;-79
2022/03/28 04:51:48;;;;;;;91.50;44.55;;;;;;;;;;5004196;28;20100;-79
2022/03/28 04:54:14;;;;;;;107.50;47.03;;;;;;;;;;5016584;28;20395;-79
2022/03/28 04:56:40;;;;;;;102.05;45.53;;;;;;;;;;5000229;28;20041;-81
2022/03/28 04:59:06;;;;;;;91.28;41.53;;;;;;;;;;5017908;28;20044;-79
2022/03/28 05:01:32;;;;;;;87.47;40.45;;;;;;;;;;5001449;28;20053;-78
2022/03/28 05:03:58;;;;;;;74.13;34.97;;;;;;;;;;5012503;28;20045;-79
2022/03/28 05:06:24;;;;;;;69.97;31.45;;;;;;;;;;4999785;28;20095;-79
2022/03/28 05:08:50;;;;;;;63.70;30.58;;;;;;;;;;5000015;28;20068;-79
2022/03/28 05:11:22;;;;;;;64.20;29.00;;;;;;;;;;5032687;28;20061;-79
2022/03/28 05:13:49;;;;;;;69.68;32.53;;;;;;;;;;5001374;28;20052;-79
2022/03/28 05:16:15;;;;;;;70.88;32.63;;;;;;;;;;5033266;28;20068;-79
2022/03/28 05:18:42;;;;;;;61.10;30.10;;;;;;;;;;5000920;28;20038;-79
2022/03/28 05:21:08;;;;;;;61.13;29.15;;;;;;;;;;5016084;28;20361;-79
2022/03/28 05:23:34;;;;;;;65.57;32.10;;;;;;;;;;4999730;28;20056;-79
2022/03/28 05:26:00;;;;;;;63.72;30.13;;;;;;;;;;5032083;28;20045;-79
2022/03/28 05:28:26;;;;;;;61.63;28.30;;;;;;;;;;4999440;28;20127;-79
2022/03/28 05:30:52;;;;;;;55.55;28.10;;;;;;;;;;5015336;28;20133;-79
2022/03/28 05:33:18;;;;;;;57.25;28.70;;;;;;;;;;5032604;28;20046;-79
2022/03/28 05:35:44;;;;;;;61.15;29.08;;;;;;;;;;5015849;28;20100;-79
2022/03/28 05:38:10;;;;;;;67.75;31.88;;;;;;;;;;5015986;28;20042;-79
2022/03/28 05:40:37;;;;;;;71.30;33.03;;;;;;;;;;4999410;28;20034;-78
2022/03/28 05:43:04;;;;;;;66.15;30.20;;;;;;;;;;4999555;28;20057;-79
2022/03/28 05:45:30;;;;;;;61.90;29.75;;;;;;;;;;5032834;28;20034;-79
2022/03/28 05:47:56;;;;;;;64.43;30.45;;;;;;;;;;4999101;28;20508;-79
2022/03/28 05:50:22;;;;;;;66.22;32.78;;;;;;;;;;5018805;28;20049;-80
2022/03/28 05:52:48;;;;;;;61.75;31.20;;;;;;;;;;5018030;28;20053;-78
2022/03/28 05:55:14;;;;;;;61.40;30.10;;;;;;;;;;5001053;28;20445;-79
2022/03/28 05:57:41;;;;;;;73.15;34.63;;;;;;;;;;4999835;28;20114;-79
2022/03/28 06:00:09;;;;;;;72.55;34.55;;;;;;;;;;5003455;28;20041;-79
2022/03/28 06:02:35;;;;;;;79.63;36.65;;;;;;;;;;5022191;28;20034;-79
2022/03/28 06:05:01;;;;;;;68.53;33.72;;;;;;;;;;5023833;28;20541;-79
2022/03/28 06:07:27;;;;;;;73.05;32.72;;;;;;;;;;5025302;28;20060;-79
2022/03/28 06:09:53;;;;;;;68.65;32.53;;;;;;;;;;5025367;28;20065;-78
2022/03/28 06:12:19;;;;;;;66.32;31.73;;;;;;;;;;5041526;28;20026;-79
2022/03/28 06:14:45;;;;;;;73.05;33.63;;;;;;;;;;5057139;28;20057;-78
2022/03/28 06:17:11;;;;;;;69.63;33.33;;;;;;;;;;5020430;28;20037;-79
2022/03/28 06:19:38;;;;;;;69.82;33.55;;;;;;;;;;5025026;28;20030;-79
2022/03/28 06:22:04;;;;;;;68.75;35.15;;;;;;;;;;5025722;28;20132;-77
2022/03/28 06:24:30;;;;;;;71.40;34.17;;;;;;;;;;5021209;28;20117;-79
2022/03/28 06:26:56;;;;;;;67.63;33.22;;;;;;;;;;5022809;28;20058;-79
2022/03/28 06:29:22;;;;;;;70.32;35.38;;;;;;;;;;5024356;28;20061;-79
2022/03/28 06:31:47;;;;;;;68.80;34.22;;;;;;;;;;5025197;28;20412;-79
2022/03/28 06:34:14;;;;;;;69.10;34.13;;;;;;;;;;5008169;28;20057;-80
2022/03/28 06:36:43;;;;;;;71.35;34.10;;;;;;;;;;5008305;28;20037;-80
2022/03/28 06:39:08;;;;;;;72.68;34.33;;;;;;;;;;5040823;28;20041;-80
2022/03/28 06:41:35;;;;;;;74.05;36.13;;;;;;;;;;5025238;28;20033;-80
2022/03/28 06:44:00;;;;;;;74.03;35.88;;;;;;;;;;5013949;28;20400;-80
2022/03/28 06:46:26;;;;;;;76.15;37.05;;;;;;;;;;5032476;28;20076;-78
2022/03/28 06:48:54;;;;;;;76.53;35.33;;;;;;;;;;5031464;28;20038;-79
2022/03/28 06:51:20;;;;;;;74.35;36.95;;;;;;;;;;5027526;28;20041;-78
2022/03/28 06:53:49;;;;;;;71.93;35.78;;;;;;;;;;5011370;28;20093;-79
2022/03/28 06:56:16;;;;;;;76.00;35.35;;;;;;;;;;5042471;28;20057;-77
2022/03/28 06:58:42;;;;;;;67.15;35.55;;;;;;;;;;5003594;28;20125;-77
2022/03/28 07:01:09;;;;;;;69.45;34.60;;;;;;;;;;5035044;28;20140;-77
2022/03/28 07:03:35;;;;;;;71.57;34.05;;;;;;;;;;5001507;28;20038;-78
2022/03/28 07:06:01;;;;;;;67.88;35.00;;;;;;;;;;5018102;28;20450;-78
2022/03/28 07:08:27;;;;;;;66.20;33.45;;;;;;;;;;5033983;28;20112;-78
2022/03/28 07:10:53;;;;;;;72.50;33.85;;;;;;;;;;5001048;28;20049;-78
2022/03/28 07:13:19;;;;;;;66.07;35.00;;;;;;;;;;5020079;28;20045;-78
2022/03/28 07:15:45;;;;;;;68.70;34.30;;;;;;;;;;5026885;28;20041;-78
2022/03/28 07:18:11;;;;;;;76.68;35.00;;;;;;;;;;5011791;28;20093;-77
2022/03/28 07:20:39;;;;;;;69.95;34.05;;;;;;;;;;5022163;28;20034;-77
2022/03/28 07:23:05;;;;;;;64.00;32.78;;;;;;;;;;5033738;28;20025;-79
2022/03/28 07:25:31;;;;;;;65.43;30.50;;;;;;;;;;5019248;28;20367;-79
2022/03/28 07:27:57;;;;;;;60.70;31.48;;;;;;;;;;5017736;28;20046;-80
2022/03/28 07:30:23;;;;;;;59.90;30.58;;;;;;;;;;5000786;28;20390;-78
2022/03/28 07:32:52;;;;;;;59.08;30.98;;;;;;;;;;5001449;28;20045;-78
2022/03/28 07:35:21;;;;;;;60.70;29.45;;;;;;;;;;5002288;28;20052;-78
2022/03/28 07:37:47;;;;;;;55.80;29.27;;;;;;;;;;5019349;28;20042;-79
2022/03/28 07:40:15;;;;;;;55.70;28.08;;;;;;;;;;5018021;28;20053;-79
2022/03/28 07:42:41;;;;;;;54.92;29.13;;;;;;;;;;5003220;28;20030;-78
2022/03/28 07:45:08;;;;;;;52.33;27.50;;;;;;;;;;5020177;28;20045;-78
2022/03/28 07:47:34;;;;;;;52.97;26.70;;;;;;;;;;5034986;28;20070;-78
2022/03/28 07:50:02;;;;;;;49.78;26.58;;;;;;;;;;5018248;28;20113;-78
2022/03/28 07:52:28;;;;;;;51.88;26.27;;;;;;;;;;5034793;28;20037;-79
2022/03/28 07:54:55;;;;;;;51.78;25.63;;;;;;;;;;5003304;28;20054;-79
2022/03/28 07:57:21;;;;;;;50.53;25.25;;;;;;;;;;5020257;28;20044;-79
2022/03/28 07:59:47;;;;;;;52.13;25.55;;;;;;;;;;5019936;28;20041;-79
2022/03/28 08:02:16;;;;;;;47.00;25.17;;;;;;;;;;5021151;28;20112;-79
2022/03/28 08:04:43;;;;;;;47.38;25.02;;;;;;;;;;5003799;28;20454;-78
2022/03/28 08:07:10;;;;;;;53.97;25.98;;;;;;;;;;5004095;28;20053;-78
2022/03/28 08:09:36;;;;;;;54.42;25.70;;;;;;;;;;5020085;28;20053;-79
2022/03/28 08:12:02;;;;;;;46.88;23.75;;;;;;;;;;5003667;28;20761;-79
2022/03/28 08:14:28;;;;;;;44.65;25.00;;;;;;;;;;5003950;28;20140;-79
2022/03/28 08:16:55;;;;;;;45.25;23.10;;;;;;;;;;5019643;28;20049;-80
2022/03/28 08:19:21;;;;;;;42.90;24.20;;;;;;;;;;5037774;28;20038;-79
2022/03/28 08:21:47;;;;;;;40.83;24.48;;;;;;;;;;5044829;28;20434;-80
2022/03/28 08:24:13;;;;;;;41.33;23.45;;;;;;;;;;5020450;28;20084;-79
2022/03/28 08:26:39;;;;;;;40.03;24.13;;;;;;;;;;5020531;28;20037;-79
2022/03/28 08:29:05;;;;;;;41.05;24.00;;;;;;;;;;5019115;28;20053;-78
2022/03/28 08:31:32;;;;;;;41.60;24.90;;;;;;;;;;5035752;28;20041;-79
2022/03/28 08:33:58;;;;;;;43.38;23.63;;;;;;;;;;5020564;28;20105;-79
2022/03/28 08:36:24;;;;;;;44.92;24.42;;;;;;;;;;5019647;28;20454;-79
2022/03/28 08:38:50;;;;;;;48.55;25.42;;;;;;;;;;5019321;28;20053;-78
2022/03/28 08:41:18;;;;;;;46.38;25.27;;;;;;;;;;5026665;28;20030;-79
2022/03/28 08:43:44;;;;;;;40.67;24.75;;;;;;;;;;5004747;28;20046;-79
2022/03/28 08:46:10;;;;;;;46.95;24.70;;;;;;;;;;5018893;28;20424;-80
2022/03/28 08:48:39;;;;;;;40.90;24.13;;;;;;;;;;5019554;28;20041;-81
2022/03/28 08:51:05;;;;;;;40.85;23.90;;;;;;;;;;5019520;28;20129;-79
2022/03/28 08:53:31;;;;;;;41.08;23.88;;;;;;;;;;5002478;28;20394;-79
2022/03/28 08:55:57;;;;;;;42.10;24.58;;;;;;;;;;5018679;28;20056;-80
2022/03/28 08:58:23;;;;;;;43.08;23.95;;;;;;;;;;5019557;28;20029;-79
2022/03/28 09:00:49;;;;;;;36.88;23.00;;;;;;;;;;5017481;28;20048;-79
2022/03/28 09:03:15;;;;;;;39.20;23.13;;;;;;;;;;5017391;28;20400;-77
2022/03/28 09:05:47;;;;;;;38.53;23.60;;;;;;;;;;5033481;28;20093;-80
2022/03/28 09:08:13;;;;;;;41.45;23.30;;;;;;;;;;5018663;28;20042;-80
2022/03/28 09:10:39;;;;;;;41.28;24.35;;;;;;;;;;5018086;28;20085;-78
2022/03/28 09:13:06;;;;;;;41.00;24.58;;;;;;;;;;5001401;28;20041;-77
2022/03/28 09:15:52;;;;;;;39.80;24.42;;;;;;;;;;5033971;28;20504;-81
2022/03/28 09:18:25;;;;;;;40.95;23.98;;;;;;;;;;5019110;28;20180;-80
2022/03/28 09:20:51;;;;;;;36.70;23.35;;;;;;;;;;5018232;28;20034;-77
2022/03/28 09:23:29;;;;;;;42.33;23.95;;;;;;;;;;5017644;28;20109;-79
2022/03/28 09:25:56;;;;;;;43.58;25.23;;;;;;;;;;5034321;28;20041;-78
2022/03/28 09:28:48;;;;;;;45.35;26.45;;;;;;;;;;5002149;28;20116;-77
2022/03/28 09:31:17;;;;;;;42.80;25.05;;;;;;;;;;5016044;28;20054;-77
2022/03/28 09:34:02;;;;;;;45.28;26.98;;;;;;;;;;5034154;28;20049;-78
2022/03/28 09:36:34;;;;;;;39.38;25.55;;;;;;;;;;5037990;28;20105;-78
2022/03/28 09:39:00;;;;;;;44.80;25.60;;;;;;;;;;5036997;28;20445;-78
2022/03/28 09:41:28;;;;;;;44.35;26.38;;;;;;;;;;5020246;28;20437;-80
2022/03/28 09:43:57;;;;;;;44.25;25.95;;;;;;;;;;5020128;28;20068;-80
2022/03/28 09:46:30;;;;;;;45.50;26.70;;;;;;;;;;5019416;28;20507;-78
2022/03/28 09:48:58;;;;;;;47.65;27.88;;;;;;;;;;5019497;28;20045;-78
2022/03/28 09:51:25;;;;;;;43.63;27.88;;;;;;;;;;5019262;28;20042;-78
2022/03/28 09:53:51;;;;;;;47.47;28.45;;;;;;;;;;5018937;28;20095;-78
2022/03/28 09:56:18;;;;;;;47.88;28.30;;;;;;;;;;5034940;28;20096;-78
2022/03/28 09:58:48;;;;;;;45.60;27.85;;;;;;;;;;5019362;28;20033;-79
2022/03/28 10:01:24;;;;;;;47.42;28.52;;;;;;;;;;5015627;28;20056;-79
2022/03/28 10:03:52;;;;;;;48.75;29.65;;;;;;;;;;5023998;28;20041;-79
2022/03/28 10:06:18;;;;;;;48.42;28.95;;;;;;;;;;5021931;28;20041;-79
2022/03/28 10:08:45;;;;;;;49.17;29.00;;;;;;;;;;5043264;28;20071;-79
2022/03/28 10:11:11;;;;;;;47.55;29.92;;;;;;;;;;5027981;28;20042;-79
2022/03/28 10:15:25;;;;;;;54.45;29.75;;;;;;;;;;5052723;27;20391;-78
2022/03/28 10:17:51;;;;;;;46.95;29.98;;;;;;;;;;5034197;28;95382;-77
2022/03/28 10:20:24;;;;;;;49.67;29.73;;;;;;;;;;5076063;27;84339;-77
2022/03/28 10:22:51;;;;;;;49.72;29.70;;;;;;;;;;5079722;28;20037;-77
2022/03/28 10:25:19;;;;;;;47.30;29.30;;;;;;;;;;5092315;28;20056;-80
2022/03/28 10:27:44;;;;;;;49.85;30.17;;;;;;;;;;5076789;28;20055;-80
